Time;durP1;ratioP1;P1;durP2;ratioP2;P2;SDS_P1;SDS_P2;PMS_P1;PMS_P2;Temp;Humidity;BMP_temperature;BMP_pressure;BME280_temperature;BME280_humidity;BME280_pressure;Samples;Min_cycle;Max_cycle;Signal;HPM_P1;HPM_P2
2022/01/26 00:00:43;;;;;;;33.80;21.37;;;;;;;;;;5089512;28;20981;-67
2022/01/26 00:06:03;;;;;;;37.10;20.07;;;;;;;;;;5092526;28;20419;-66
2022/01/26 00:08:30;;;;;;;28.40;16.67;;;;;;;;;;5092114;28;20444;-67
2022/01/26 00:10:58;;;;;;;35.30;19.90;;;;;;;;;;5092555;28;20455;-67
2022/01/26 00:13:25;;;;;;;35.17;19.40;;;;;;;;;;5087012;28;20495;-66
2022/01/26 00:15:53;;;;;;;33.73;18.50;;;;;;;;;;5092747;28;20524;-66
2022/01/26 00:18:22;;;;;;;33.77;20.60;;;;;;;;;;5092544;28;20797;-67
2022/01/26 00:20:51;;;;;;;33.50;19.57;;;;;;;;;;5093022;28;20805;-66
2022/01/26 00:23:46;;;;;;;38.20;21.40;;;;;;;;;;5092119;28;21085;-66
2022/01/26 00:26:16;;;;;;;44.03;22.03;;;;;;;;;;5091182;28;20505;-66
2022/01/26 00:28:59;;;;;;;39.60;22.63;;;;;;;;;;5078883;28;20565;-66
2022/01/26 00:39:42;;;;;;;33.20;19.40;;;;;;;;;;5092535;28;20427;-66
2022/01/26 00:42:09;;;;;;;37.53;20.97;;;;;;;;;;5091748;28;20448;-66
2022/01/26 00:44:42;;;;;;;36.90;21.43;;;;;;;;;;5091855;28;21003;-66
2022/01/26 00:47:09;;;;;;;37.73;21.13;;;;;;;;;;5082738;28;20531;-66
2022/01/26 00:49:36;;;;;;;36.10;21.00;;;;;;;;;;5092386;28;20450;-67
2022/01/26 00:52:06;;;;;;;37.30;18.43;;;;;;;;;;5092286;28;20452;-66
2022/01/26 00:54:34;;;;;;;35.47;20.60;;;;;;;;;;5092835;28;20452;-66
2022/01/26 00:57:03;;;;;;;40.13;20.80;;;;;;;;;;5086005;28;20512;-66
2022/01/26 00:59:30;;;;;;;41.30;21.90;;;;;;;;;;5088953;28;20980;-67
2022/01/26 01:01:58;;;;;;;35.67;20.67;;;;;;;;;;5090795;28;20781;-67
2022/01/26 01:04:25;;;;;;;40.77;20.47;;;;;;;;;;5092616;28;20484;-66
2022/01/26 01:06:57;;;;;;;36.73;21.93;;;;;;;;;;5085836;28;20448;-66
2022/01/26 01:09:25;;;;;;;40.37;21.70;;;;;;;;;;5091531;28;20456;-66
2022/01/26 01:11:56;;;;;;;39.67;21.03;;;;;;;;;;5091326;28;20518;-66
2022/01/26 01:14:25;;;;;;;41.03;22.67;;;;;;;;;;5091844;28;20457;-66
2022/01/26 01:16:55;;;;;;;50.50;23.67;;;;;;;;;;5090099;28;20968;-67
2022/01/26 01:19:32;;;;;;;43.20;23.50;;;;;;;;;;5086811;28;20444;-66
2022/01/26 01:22:20;;;;;;;48.70;24.07;;;;;;;;;;5090759;28;20518;-66
2022/01/26 01:25:19;;;;;;;45.73;22.47;;;;;;;;;;5087392;28;20468;-66
2022/01/26 01:27:51;;;;;;;41.00;22.73;;;;;;;;;;5073286;28;20502;-66
2022/01/26 01:30:35;;;;;;;36.53;21.07;;;;;;;;;;5089922;28;20449;-66
2022/01/26 01:33:07;;;;;;;43.20;22.00;;;;;;;;;;5090412;28;20780;-66
2022/01/26 01:35:37;;;;;;;46.17;22.10;;;;;;;;;;5082725;28;20503;-66
2022/01/26 01:38:09;;;;;;;46.87;22.40;;;;;;;;;;5082993;28;20453;-67
2022/01/26 01:40:37;;;;;;;42.80;22.50;;;;;;;;;;5083863;28;20947;-66
2022/01/26 01:43:05;;;;;;;34.33;19.60;;;;;;;;;;5091131;28;20456;-67
2022/01/26 01:45:35;;;;;;;37.43;19.33;;;;;;;;;;5089955;28;20444;-66
2022/01/26 01:48:02;;;;;;;38.13;21.00;;;;;;;;;;5090234;28;20440;-66
2022/01/26 01:50:30;;;;;;;40.60;21.90;;;;;;;;;;5090922;28;20484;-66
2022/01/26 01:53:01;;;;;;;37.43;21.03;;;;;;;;;;5089546;28;20448;-66
2022/01/26 01:55:29;;;;;;;33.50;19.47;;;;;;;;;;5090986;28;20953;-66
2022/01/26 01:57:56;;;;;;;41.30;18.20;;;;;;;;;;5086831;28;20476;-66
2022/01/26 02:00:23;;;;;;;42.97;18.43;;;;;;;;;;5090646;28;20476;-66
2022/01/26 02:02:52;;;;;;;37.60;20.00;;;;;;;;;;5089812;28;20440;-66
2022/01/26 02:05:20;;;;;;;37.67;18.80;;;;;;;;;;5090906;28;20835;-66
2022/01/26 02:07:47;;;;;;;38.70;19.70;;;;;;;;;;5090564;28;20482;-66
2022/01/26 02:10:14;;;;;;;34.30;19.20;;;;;;;;;;5090650;28;20776;-67
2022/01/26 02:12:46;;;;;;;36.70;20.30;;;;;;;;;;5090834;28;20536;-66
2022/01/26 02:15:18;;;;;;;36.03;20.20;;;;;;;;;;5090340;28;20444;-66
2022/01/26 02:18:11;;;;;;;40.90;20.70;;;;;;;;;;5090619;28;20945;-67
2022/01/26 02:54:21;;;;;;;27.63;15.57;;;;;;;;;;5063612;28;20471;-66
2022/01/26 02:57:02;;;;;;;26.37;15.60;;;;;;;;;;5072401;28;20477;-66
2022/01/26 02:59:54;;;;;;;22.37;16.07;;;;;;;;;;5089593;28;20522;-66
2022/01/26 03:02:30;;;;;;;23.60;13.90;;;;;;;;;;5081309;28;20452;-66
2022/01/26 03:05:00;;;;;;;26.23;16.10;;;;;;;;;;5093256;28;20468;-66
2022/01/26 03:07:39;;;;;;;31.77;15.57;;;;;;;;;;5093020;28;20452;-67
2022/01/26 03:10:15;;;;;;;27.87;16.23;;;;;;;;;;5094046;28;20455;-66
2022/01/26 03:12:48;;;;;;;25.27;16.17;;;;;;;;;;5084391;28;20519;-67
2022/01/26 03:15:20;;;;;;;27.67;16.60;;;;;;;;;;5089960;28;20523;-67
2022/01/26 03:18:06;;;;;;;29.37;16.50;;;;;;;;;;5086139;28;20534;-67
2022/01/26 03:20:35;;;;;;;30.30;16.27;;;;;;;;;;5093225;28;20448;-66
2022/01/26 03:28:44;;;;;;;20.67;12.90;;;;;;;;;;5090567;28;20934;-66
2022/01/26 03:33:57;;;;;;;21.67;12.87;;;;;;;;;;5067544;28;20451;-66
2022/01/26 03:36:27;;;;;;;20.00;12.67;;;;;;;;;;5086392;28;20452;-66
2022/01/26 03:39:06;;;;;;;22.37;12.23;;;;;;;;;;5093099;28;20451;-66
2022/01/26 03:41:41;;;;;;;21.13;12.30;;;;;;;;;;5093695;28;20472;-66
2022/01/26 03:44:09;;;;;;;23.23;12.50;;;3.60;1.00;;;;;;5093168;28;20467;-66
2022/01/26 03:46:36;;;;;;;20.20;13.20;;;1.10;1.00;;;;;;5086471;28;20475;-66
2022/01/26 03:49:04;;;;;;;20.97;12.80;;;1.10;1.00;;;;;;5084425;28;20448;-67
2022/01/26 03:51:32;;;;;;;27.17;12.40;;;1.20;1.00;;;;;;5093238;28;20945;-66
2022/01/26 03:53:59;;;;;;;23.70;13.37;;;1.20;1.00;;;;;;5092397;28;20540;-66
2022/01/26 03:56:25;;;;;;;28.57;13.00;;;1.20;1.00;;;;;;5082180;28;20567;-66
2022/01/26 03:58:54;;;;;;;26.50;14.70;;;1.20;1.00;;;;;;5091760;28;20455;-66
2022/01/26 04:01:21;;;;;;;25.93;13.37;;;1.40;1.00;;;;;;5092918;28;20448;-67
2022/01/26 04:03:48;;;;;;;21.20;13.10;;;1.40;1.00;;;;;;5088685;28;20440;-66
2022/01/26 04:06:15;;;;;;;30.63;16.37;;;1.60;1.00;;;;;;5092900;28;20449;-66
2022/01/26 04:08:44;;;;;;;28.80;15.17;;;1.40;1.00;;;;;;5092865;28;20866;-66
2022/01/26 04:11:29;;;;;;;23.63;13.13;;;1.40;1.00;;;;;;5091262;28;20541;-66
2022/01/26 04:13:57;;;;;;;21.70;13.50;;;1.30;1.00;;;;;;5087646;28;20453;-66
2022/01/26 04:16:24;;;;;;;27.70;14.50;;;1.40;1.00;;;;;;5093231;28;20810;-66
2022/01/26 04:18:53;;;;;;;23.37;13.10;;;1.40;1.00;;;;;;5087397;28;20535;-66
2022/01/26 04:21:28;;;;;;;26.13;13.40;;;1.30;1.00;;;;;;5079809;28;20447;-66
2022/01/26 04:23:59;;;;;;;28.03;14.97;;;1.50;1.00;;;;;;5073999;28;20449;-66
2022/01/26 04:26:31;;;;;;;26.17;15.03;;;1.60;1.00;;;;;;5073610;28;20469;-66
2022/01/26 04:29:03;;;;;;;21.00;13.87;;;1.70;1.00;;;;;;5092748;28;20918;-66
2022/01/26 04:31:30;;;;;;;23.43;13.10;;;1.70;1.00;;;;;;5088329;28;20444;-67
2022/01/26 04:33:57;;;;;;;27.87;15.00;;;1.50;1.00;;;;;;5081325;28;20448;-66
2022/01/26 04:36:29;;;;;;;25.23;17.37;;;1.50;1.00;;;;;;5093043;28;20453;-66
2022/01/26 04:39:00;;;;;;;23.43;14.10;;;1.50;1.00;;;;;;5092389;28;20456;-66
2022/01/26 04:41:33;;;;;;;24.53;12.83;;;1.60;1.00;;;;;;5092898;28;20505;-66
2022/01/26 04:44:07;;;;;;;29.70;17.00;;;1.60;1.00;;;;;;5089576;28;20453;-67
2022/01/26 04:46:34;;;;;;;28.10;15.60;;;1.70;1.00;;;;;;5078977;28;20810;-66
2022/01/26 04:49:01;;;;;;;26.47;13.53;;;1.70;1.00;;;;;;5083208;28;20529;-66
2022/01/26 04:51:27;;;;;;;27.07;14.17;;;1.60;1.00;;;;;;5078943;28;20454;-66
2022/01/26 04:53:54;;;;;;;32.73;14.87;;;1.70;1.00;;;;;;5091657;28;20455;-66
2022/01/26 04:56:21;;;;;;;31.83;15.53;;;1.40;1.00;;;;;;5092149;28;20559;-66
2022/01/26 04:58:48;;;;;;;31.70;15.93;;;1.20;75.10;;;;;;5092151;28;20449;-66
2022/01/26 05:01:16;;;;;;;31.17;14.97;;;1.10;99.90;;;;;;5082830;28;20445;-66
2022/01/26 05:03:43;;;;;;;34.70;16.17;;;1.30;99.90;;;;;;5085663;28;20487;-66
2022/01/26 05:06:10;;;;;;;35.97;15.43;;;1.40;99.90;;;;;;5091704;28;20844;-67
2022/01/26 05:08:37;;;;;;;33.70;16.30;;;1.30;99.90;;;;;;5091850;28;20450;-67
2022/01/26 05:11:05;;;;;;;29.27;14.60;;;1.10;99.90;;;;;;5092067;28;20448;-68
2022/01/26 05:13:32;;;;;;;25.60;13.70;;;1.00;99.90;;;;;;5092142;28;20941;-67
2022/01/26 05:15:59;;;;;;;32.13;16.60;;;0.90;99.90;;;;;;5091949;28;20509;-67
2022/01/26 05:18:28;;;;;;;29.03;13.53;;;1.30;99.90;;;;;;5091680;28;20455;-67
2022/01/26 05:20:56;;;;;;;45.70;16.43;;;1.20;99.90;;;;;;5091696;28;20445;-67
2022/01/26 05:23:23;;;;;;;27.93;15.73;;;1.10;99.90;;;;;;5091341;28;20947;-67
2022/01/26 05:25:50;;;;;;;26.37;14.60;;;1.30;99.90;;;;;;5091077;28;20995;-66
2022/01/26 05:28:17;;;;;;;30.37;16.80;;;1.20;99.90;;;;;;5091172;28;20459;-66
2022/01/26 05:30:44;;;;;;;28.53;13.23;;;1.30;99.90;;;;;;5092038;28;20540;-66
2022/01/26 05:33:10;;;;;;;29.03;13.50;;;1.20;99.90;;;;;;5091190;28;20452;-67
2022/01/26 05:35:41;;;;;;;26.60;14.50;;;1.30;99.90;;;;;;5092129;28;20452;-67
2022/01/26 05:38:08;;;;;;;28.93;13.87;;;1.20;99.90;;;;;;5077637;28;20434;-67
2022/01/26 05:40:35;;;;;;;31.40;14.17;;;1.30;99.90;;;;;;5082306;28;20721;-67
2022/01/26 05:43:02;;;;;;;27.50;13.33;;;;;;;;;;5090823;28;20945;-67
2022/01/26 05:45:33;;;;;;;33.90;15.43;;;;;;;;;;5091665;28;20487;-67
2022/01/26 05:48:04;;;;;;;30.77;16.80;;;;;;;;;;5090638;28;20437;-67
2022/01/26 05:50:32;;;;;;;28.97;16.50;;;;;;;;;;5091318;28;20457;-67
2022/01/26 05:53:01;;;;;;;31.53;15.57;;;;;;;;;;5090680;28;20462;-67
2022/01/26 05:55:29;;;;;;;28.47;14.30;;;;;;;;;;5091530;28;20456;-67
2022/01/26 05:57:56;;;;;;;26.60;14.70;;;;;;;;;;5090302;28;20578;-66
2022/01/26 06:00:23;;;;;;;24.93;13.80;;;;;;;;;;5091801;28;20861;-67
2022/01/26 06:02:50;;;;;;;32.03;15.80;;;;;;;;;;5090646;28;20528;-67
2022/01/26 06:05:19;;;;;;;21.37;12.77;;;;;;;;;;5091673;28;20550;-67
2022/01/26 06:07:46;;;;;;;26.87;13.97;;;;;;;;;;5077750;28;20881;-66
2022/01/26 06:10:14;;;;;;;33.10;15.50;;;;;;;;;;5090323;28;20450;-66
2022/01/26 06:12:42;;;;;;;27.00;14.80;;;;;;;;;;5091218;28;20531;-66
2022/01/26 06:15:09;;;;;;;29.33;15.27;;;;;;;;;;5090331;28;20510;-66
2022/01/26 06:17:36;;;;;;;30.93;16.73;;;;;;;;;;5090755;28;20447;-66
2022/01/26 06:20:03;;;;;;;31.23;17.60;;;;;;;;;;5090393;28;20445;-67
2022/01/26 06:22:31;;;;;;;33.30;16.80;;;;;;;;;;5091119;28;20454;-67
2022/01/26 06:25:02;;;;;;;40.23;16.67;;;;;;;;;;5089931;28;20477;-67
2022/01/26 06:27:30;;;;;;;30.70;16.13;;;;;;;;;;5090703;28;20591;-67
2022/01/26 06:29:57;;;;;;;27.33;14.93;;;;;;;;;;5090206;28;20468;-66
2022/01/26 06:32:24;;;;;;;28.60;15.50;;;;;;;;;;5091067;28;20483;-67
2022/01/26 06:34:52;;;;;;;28.77;15.20;;;;;;;;;;5089077;28;20917;-66
2022/01/26 06:37:19;;;;;;;27.63;14.87;;;;;;;;;;5090485;28;20441;-67
2022/01/26 06:39:47;;;;;;;28.20;16.00;;;;;;;;;;5091183;28;20444;-67
2022/01/26 06:42:17;;;;;;;33.43;17.47;;;;;;;;;;5091326;28;20780;-68
2022/01/26 06:44:56;;;;;;;26.30;15.10;;;;;;;;;;5090802;28;20472;-66
2022/01/26 06:47:46;;;;;;;28.63;14.43;;;;;;;;;;5090857;28;20455;-66
2022/01/26 06:50:13;;;;;;;28.13;14.53;;;;;;;;;;5080816;28;20776;-67
2022/01/26 06:52:43;;;;;;;25.37;16.00;;;;;;;;;;5091041;28;20527;-67
2022/01/26 06:55:10;;;;;;;32.20;15.13;;;;;;;;;;5089903;28;21240;-67
2022/01/26 06:57:37;;;;;;;22.93;13.73;;;;;;;;;;5089893;28;20899;-67
2022/01/26 07:00:07;;;;;;;31.07;14.03;;;;;;;;;;5090107;28;20805;-67
2022/01/26 07:02:36;;;;;;;27.50;13.80;;;;;;;;;;5090770;28;20617;-67
2022/01/26 07:05:03;;;;;;;27.20;14.67;;;;;;;;;;5089765;28;20484;-67
2022/01/26 07:07:30;;;;;;;29.77;15.10;;;;;;;;;;5090284;28;20609;-67
2022/01/26 07:09:57;;;;;;;29.27;14.60;;;;;;;;;;5089309;28;20506;-67
2022/01/26 07:12:24;;;;;;;27.33;14.00;;;;;;;;;;5090197;28;20449;-68
2022/01/26 07:21:22;;;;;;;20.50;12.37;;;;;;;;;;5090367;28;20478;-67
2022/01/26 07:23:38;;;;;;;24.13;13.50;;;;;;;;;;5090394;28;20451;-66
2022/01/26 07:26:05;;;;;;;25.80;14.73;;;;;;;;;;5090149;28;20582;-66
2022/01/26 07:28:36;;;;;;;24.63;13.90;;;;;;;;;;5089996;28;20452;-67
2022/01/26 07:31:03;;;;;;;28.10;14.30;;;;;;;;;;5090048;28;20928;-66
2022/01/26 07:33:32;;;;;;;26.40;13.97;;;;;;;;;;5090641;28;20444;-67
2022/01/26 07:35:59;;;;;;;29.57;14.57;;;;;;;;;;5089628;28;20456;-67
2022/01/26 07:38:27;;;;;;;32.80;17.10;;;;;;;;;;5089812;28;20490;-67
2022/01/26 07:40:54;;;;;;;26.83;15.80;;;;;;;;;;5089376;28;20850;-68
2022/01/26 07:43:22;;;;;;;28.23;14.27;;;;;;;;;;5080171;28;20543;-68
2022/01/26 07:45:49;;;;;;;29.80;14.77;;;;;;;;;;5089959;28;20480;-67
2022/01/26 07:48:16;;;;;;;27.90;14.23;;;;;;;;;;5093562;28;20513;-67
2022/01/26 07:50:45;;;;;;;25.40;15.53;;;;;;;;;;5093888;28;20561;-67
2022/01/26 07:53:15;;;;;;;30.57;14.70;;;;;;;;;;5093190;28;20448;-67
2022/01/26 07:55:43;;;;;;;29.33;15.17;;;;;;;;;;5093513;28;20444;-67
2022/01/26 07:58:11;;;;;;;22.80;12.90;;;;;;;;;;5092177;28;20467;-68
2022/01/26 08:00:38;;;;;;;26.93;14.70;;;;;;;;;;5093425;28;20445;-67
2022/01/26 08:03:06;;;;;;;32.13;15.80;;;;;;;;;;5092635;28;20889;-67
2022/01/26 08:05:33;;;;;;;26.03;13.17;;;;;;;;;;5093394;28;21026;-67
2022/01/26 08:08:01;;;;;;;26.70;16.07;;;;;;;;;;5092649;28;20880;-67
2022/01/26 08:10:28;;;;;;;28.93;14.60;;;;;;;;;;5093364;28;20933;-67
2022/01/26 08:12:56;;;;;;;25.03;15.20;;;;;;;;;;5093099;28;20455;-67
2022/01/26 08:15:23;;;;;;;26.83;16.00;;;;;;;;;;5093308;28;20929;-67
2022/01/26 08:17:50;;;;;;;24.93;14.27;;;;;;;;;;5092896;28;20447;-67
2022/01/26 08:20:17;;;;;;;27.57;15.13;;;;;;;;;;5093391;28;20444;-67
2022/01/26 08:22:44;;;;;;;29.00;15.23;;;;;;;;;;5093375;28;20440;-67
2022/01/26 08:25:13;;;;;;;25.83;15.27;;;;;;;;;;5092106;28;20444;-67
2022/01/26 08:27:45;;;;;;;33.13;15.70;;;;;;;;;;5092903;28;20444;-67
2022/01/26 08:30:16;;;;;;;21.90;13.80;;;;;;;;;;5092355;28;20451;-67
2022/01/26 08:32:43;;;;;;;31.67;15.50;;;;;;;;;;5092863;28;20448;-67
2022/01/26 08:35:10;;;;;;;32.70;15.73;;;;;;;;;;5091963;28;20568;-68
2022/01/26 08:37:38;;;;;;;32.37;15.87;;;;;;;;;;5092377;28;20535;-68
2022/01/26 08:40:06;;;;;;;32.37;16.13;;;;;;;;;;5092057;28;20447;-67
2022/01/26 08:42:34;;;;;;;33.90;15.70;;;;;;;;;;5092713;28;20445;-67
2022/01/26 08:45:01;;;;;;;26.00;14.13;;;;;;;;;;5078686;28;20455;-67
2022/01/26 08:47:28;;;;;;;27.80;15.10;;;;;;;;;;5092448;28;20480;-67
2022/01/26 08:49:56;;;;;;;27.87;14.57;;;;;;;;;;5092414;28;20453;-66
2022/01/26 08:52:23;;;;;;;27.70;14.00;;;;;;;;;;5093160;28;20449;-67
2022/01/26 08:54:50;;;;;;;24.60;14.07;;;;;;;;;;5092071;28;20452;-67
2022/01/26 08:57:17;;;;;;;32.57;15.67;;;;;;;;;;5091877;28;20487;-66
2022/01/26 08:59:46;;;;;;;32.57;16.30;;;;;;;;;;5092306;28;20999;-66
2022/01/26 09:02:13;;;;;;;26.70;14.40;;;;;;;;;;5091816;28;20959;-67
2022/01/26 09:04:40;;;;;;;31.73;15.53;;;;;;;;;;5092503;28;20536;-66
2022/01/26 09:07:08;;;;;;;29.67;14.80;;;;;;;;;;5091201;28;20803;-66
2022/01/26 09:09:43;;;;;;;34.07;15.87;;;;;;;;;;5092254;28;20440;-66
2022/01/26 09:12:11;;;;;;;31.53;16.73;;;;;;;;;;5091144;28;20952;-66
2022/01/26 09:14:38;;;;;;;31.50;16.40;;;;;;;;;;5092353;28;20532;-67
2022/01/26 09:17:08;;;;;;;27.30;14.67;;;;;;;;;;5091185;28;20452;-66
2022/01/26 09:19:35;;;;;;;31.13;14.43;;;;;;;;;;5092080;28;20476;-67
2022/01/26 09:22:04;;;;;;;33.97;15.97;;;;;;;;;;5091370;28;20504;-66
2022/01/26 09:24:32;;;;;;;34.40;16.93;;;;;;;;;;5092060;28;20505;-67
2022/01/26 09:27:00;;;;;;;36.23;16.23;;;;;;;;;;5090838;28;20500;-67
2022/01/26 09:29:27;;;;;;;36.10;17.63;;;;;;;;;;5092109;28;20480;-67
2022/01/26 09:31:55;;;;;;;29.70;16.57;;;;;;;;;;5091400;28;20452;-66
2022/01/26 09:34:25;;;;;;;37.10;17.83;;;;;;;;;;5092321;28;20445;-67
2022/01/26 09:36:52;;;;;;;29.40;15.70;;;;;;;;;;5077545;28;20448;-67
2022/01/26 09:39:20;;;;;;;35.83;15.67;;;;;;;;;;5091924;28;20447;-66
2022/01/26 09:41:48;;;;;;;32.50;14.73;;;;;;;;;;5091983;28;21015;-67
2022/01/26 09:44:15;;;;;;;31.77;17.90;;;;;;;;;;5091601;28;20535;-66
2022/01/26 09:46:43;;;;;;;25.40;13.60;;;;;;;;;;5090968;28;21060;-67
2022/01/26 09:49:10;;;;;;;30.70;14.57;;;;;;;;;;5090469;28;20445;-66
2022/01/26 09:51:42;;;;;;;33.33;16.50;;;;;;;;;;5091440;28;20445;-67
2022/01/26 09:54:13;;;;;;;32.00;15.87;;;;;;;;;;5090682;28;20432;-66
2022/01/26 09:56:40;;;;;;;33.60;16.40;;;;;;;;;;5090641;28;20587;-67
2022/01/26 09:59:07;;;;;;;28.73;16.87;;;;;;;;;;5090709;28;20562;-66
2022/01/26 10:01:41;;;;;;;34.90;17.03;;;;;;;;;;5091260;28;20943;-67
2022/01/26 10:04:19;;;;;;;28.50;15.63;;;;;;;;;;5090327;28;20490;-66
2022/01/26 10:06:50;;;;;;;33.10;15.77;;;;;;;;;;5091138;28;20472;-67
2022/01/26 10:17:36;;;;;;;26.03;13.67;;;;;;;;;;5078856;28;20554;-66
2022/01/26 10:20:05;;;;;;;30.83;15.90;;;;;;;;;;5090429;28;20535;-66
2022/01/26 10:22:34;;;;;;;24.50;13.73;;;;;;;;;;5091369;28;20551;-66
2022/01/26 10:25:06;;;;;;;24.20;13.60;;;;;;;;;;5090430;28;20448;-66
2022/01/26 10:27:37;;;;;;;20.37;12.70;;;;;;;;;;5091204;28;20574;-66
2022/01/26 10:30:06;;;;;;;26.00;13.20;;;;;;;;;;5090399;28;20917;-66
2022/01/26 10:32:34;;;;;;;23.83;14.33;;;;;;;;;;5092213;28;20448;-66
2022/01/26 10:35:01;;;;;;;24.33;12.07;;;;;;;;;;5092292;28;20480;-66
2022/01/26 10:37:29;;;;;;;23.30;14.13;;;;;;;;;;5090779;28;21233;-67
2022/01/26 10:40:10;;;;;;;23.87;13.20;;;;;;;;;;5089890;28;20857;-67
2022/01/26 10:42:37;;;;;;;20.80;12.20;;;;;;;;;;5091036;28;20440;-67
2022/01/26 10:45:10;;;;;;;22.67;13.53;;;;;;;;;;5090263;28;20559;-66
2022/01/26 10:47:40;;;;;;;22.67;13.30;;;;;;;;;;5090298;28;20559;-67
2022/01/26 10:50:32;;;;;;;22.57;12.07;;;;;;;;;;5089992;28;21014;-66
2022/01/26 10:53:09;;;;;;;24.90;14.03;;;;;;;;;;5090125;28;20528;-66
2022/01/26 10:55:39;;;;;;;23.37;13.30;;;;;;;;;;5090591;28;20509;-66
2022/01/26 10:58:07;;;;;;;23.60;11.50;;;;;;;;;;5089887;28;20835;-66
2022/01/26 11:00:36;;;;;;;24.60;13.30;;;;;;;;;;5091246;28;20821;-66
2022/01/26 11:03:03;;;;;;;20.43;12.20;;;;;;;;;;5090491;28;20455;-67
2022/01/26 11:05:30;;;;;;;26.23;14.67;;;;;;;;;;5090764;28;20444;-66
2022/01/26 11:07:58;;;;;;;24.07;13.30;;;;;;;;;;5089651;28;20511;-66
2022/01/26 11:10:32;;;;;;;26.13;14.97;;;;;;;;;;5090690;28;20445;-66
2022/01/26 11:13:00;;;;;;;24.93;13.83;;;;;;;;;;5089834;28;20468;-66
2022/01/26 11:15:27;;;;;;;21.47;13.70;;;;;;;;;;5090413;28;20817;-66
2022/01/26 11:18:05;;;;;;;23.63;14.47;;;;;;;;;;5089467;28;20475;-66
2022/01/26 11:20:34;;;;;;;21.53;13.33;;;;;;;;;;5090384;28;20998;-66
2022/01/26 11:23:02;;;;;;;22.20;13.70;;;;;;;;;;5093434;28;20483;-66
2022/01/26 11:25:31;;;;;;;23.27;13.57;;;;;;;;;;5094305;28;20805;-66
2022/01/26 11:27:59;;;;;;;25.67;14.37;;;;;;;;;;5092748;28;20549;-66
2022/01/26 11:30:29;;;;;;;32.63;14.90;;;;;;;;;;5094286;28;20471;-66
2022/01/26 11:32:58;;;;;;;31.27;16.30;;;;;;;;;;5093142;28;20954;-66
2022/01/26 11:35:27;;;;;;;32.60;15.57;;;;;;;;;;5093905;28;20468;-68
2022/01/26 11:38:06;;;;;;;29.60;15.40;;;;;;;;;;5092675;28;20531;-66
2022/01/26 11:46:11;;;;;;;33.30;15.43;;;;;;;;;;5093170;28;21270;-67
2022/01/26 11:48:39;;;;;;;29.00;16.57;;;;;;;;;;5094220;28;20448;-66
2022/01/26 11:51:07;;;;;;;28.17;15.10;;;;;;;;;;5093517;28;20444;-67
2022/01/26 11:53:34;;;;;;;29.20;16.93;;;;;;;;;;5094187;28;20556;-66
2022/01/26 11:56:07;;;;;;;33.40;16.50;;;;;;;;;;5092342;28;20464;-66
2022/01/26 11:58:36;;;;;;;38.77;18.70;;;;;;;;;;5094006;28;20498;-66
2022/01/26 12:01:15;;;;;;;35.57;19.13;;;;;;;;;;5092808;28;20448;-67
2022/01/26 12:03:48;;;;;;;36.60;19.27;;;;;;;;;;5093791;28;20758;-66
2022/01/26 12:06:20;;;;;;;32.70;18.07;;;;;;;;;;5093104;28;20849;-66
2022/01/26 12:08:47;;;;;;;35.63;16.63;;;;;;;;;;5093350;28;20446;-66
2022/01/26 12:11:15;;;;;;;34.10;17.60;;;;;;;;;;5093144;28;20510;-67
2022/01/26 12:13:44;;;;;;;34.50;16.33;;;;;;;;;;5093354;28;20526;-67
2022/01/26 12:16:15;;;;;;;36.47;17.80;;;;;;;;;;5092531;28;20864;-66
2022/01/26 12:18:52;;;;;;;29.07;14.73;;;;;;;;;;5093424;28;20479;-66
2022/01/26 12:35:39;;;;;;;29.60;14.83;;;;;;;;;;5011317;28;20424;-67
2022/01/26 12:38:13;;;;;;;29.27;16.10;;;;;;;;;;5009919;28;20451;-66
2022/01/26 12:43:34;;;;;;;25.00;14.13;;;;;;;;;;5083491;28;20922;-67
2022/01/26 12:46:02;;;;;;;33.80;14.90;;;;;;;;;;5091554;28;20444;-66
2022/01/26 12:48:29;;;;;;;23.97;12.30;;;;;;;;;;5092565;28;20480;-67
2022/01/26 12:50:59;;;;;;;28.07;14.73;;;;;;;;;;5091873;28;20445;-67
2022/01/26 12:53:27;;;;;;;38.80;14.77;;;;;;;;;;5092528;28;20535;-68
2022/01/26 12:55:56;;;;;;;31.83;15.53;;;;;;;;;;5090975;28;20543;-68
2022/01/26 12:58:27;;;;;;;29.83;16.57;;;;;;;;;;5092551;28;20455;-67
2022/01/26 13:00:59;;;;;;;33.70;15.70;;;;;;;;;;5091584;28;20484;-67
2022/01/26 13:03:30;;;;;;;29.90;15.57;;;;;;;;;;5092275;28;20929;-67
2022/01/26 13:06:06;;;;;;;24.57;13.07;;;;;;;;;;5091213;28;20524;-67
2022/01/26 13:08:40;;;;;;;29.50;16.13;;;;;;;;;;5092865;28;20472;-66
2022/01/26 13:11:07;;;;;;;24.07;14.40;;;;;;;;;;5092133;28;20433;-66
2022/01/26 13:13:35;;;;;;;26.27;12.93;;;;;;;;;;5092312;28;20931;-67
2022/01/26 13:16:09;;;;;;;26.67;14.23;;;;;;;;;;5091094;28;20975;-66
2022/01/26 13:19:05;;;;;;;24.97;13.77;;;;;;;;;;5092856;28;20446;-67
2022/01/26 13:21:56;;;;;;;24.27;12.83;;;;;;;;;;5092821;28;20440;-66
2022/01/26 13:24:48;;;;;;;29.97;14.57;;;;;;;;;;5082146;28;20493;-67
2022/01/26 13:27:25;;;;;;;27.00;14.27;;;;;;;;;;5091988;28;20488;-67
2022/01/26 13:30:05;;;;;;;24.23;13.87;;;;;;;;;;5091184;28;20443;-67
2022/01/26 13:35:41;;;;;;;25.17;12.30;;;;;;;;;;5091480;28;20428;-66
2022/01/26 13:38:30;;;;;;;27.80;14.27;;;;;;;;;;5091090;28;20621;-66
2022/01/26 13:41:06;;;;;;;25.23;13.83;;;;;;;;;;5091008;28;20562;-67
2022/01/26 13:49:31;;;;;;;29.67;15.17;;;;;;;;;;5091287;28;20433;-67
2022/01/26 13:52:18;;;;;;;22.70;13.60;;;;;;;;;;5091255;28;20930;-66
2022/01/26 13:55:00;;;;;;;26.27;13.83;;;;;;;;;;5091777;28;20921;-67
2022/01/26 14:00:09;;;;;;;27.87;14.37;;;;;;;;;;5086871;28;21288;-66
2022/01/26 14:02:38;;;;;;;25.07;13.53;;;;;;;;;;5091419;28;20441;-67
2022/01/26 14:05:06;;;;;;;26.93;13.80;;;;;;;;;;5091073;28;20539;-66
2022/01/26 14:07:33;;;;;;;28.77;14.20;;;;;;;;;;5090742;28;20518;-66
2022/01/26 14:10:01;;;;;;;25.83;13.87;;;;;;;;;;5090091;28;20995;-66
2022/01/26 14:12:33;;;;;;;26.57;15.60;;;;;;;;;;5091179;28;21601;-66
2022/01/26 14:15:05;;;;;;;29.10;14.30;;;;;;;;;;5090645;28;20456;-66
2022/01/26 14:17:40;;;;;;;26.00;13.67;;;;;;;;;;5090622;28;20456;-68
2022/01/26 14:20:15;;;;;;;26.87;14.90;;;;;;;;;;5090467;28;20791;-67
2022/01/26 14:23:02;;;;;;;28.67;11.77;;;;;;;;;;5090990;28;20502;-67
2022/01/26 14:25:32;;;;;;;23.70;12.03;;;;;;;;;;5090965;28;20448;-67
2022/01/26 14:28:04;;;;;;;21.30;11.80;;;;;;;;;;5090096;28;20495;-67
2022/01/26 14:30:39;;;;;;;24.73;13.43;;;;;;;;;;5091019;28;20795;-66
2022/01/26 14:33:30;;;;;;;23.33;12.83;;;;;;;;;;5089981;28;20451;-67
2022/01/26 15:18:58;;;;;;;21.27;12.07;;;;;;;;;;5011193;28;20436;-67
2022/01/26 15:32:47;;;;;;;22.73;12.00;;;;;;;;;;5094372;28;20474;-67
2022/01/26 15:35:02;;;;;;;22.30;10.83;;;;;;;;;;5093855;28;20502;-67
2022/01/26 15:40:28;;;;;;;22.30;10.90;;;;;;;;;;5080319;28;20432;-67
2022/01/26 15:48:54;;;;;;;25.17;12.87;;;;;;;;;;5093991;28;21051;-67
2022/01/26 16:05:23;;;;;;;27.53;10.93;;;;;;;;;;5093815;28;20439;-67
2022/01/26 16:07:55;;;;;;;18.77;9.73;;;;;;;;;;5094370;28;20521;-67
2022/01/26 16:21:26;;;;;;;25.70;12.33;;;;;;;;;;5093285;28;20515;-66
2022/01/26 16:27:09;;;;;;;21.40;11.80;;;;;;;;;;5092683;28;20533;-67
2022/01/26 16:35:27;;;;;;;23.10;11.17;;;;;;;;;;5092197;28;20428;-67
2022/01/26 16:38:17;;;;;;;12.80;8.10;;;;;;;;;;5092150;28;20445;-67
2022/01/26 17:11:26;;;;;;;27.90;13.27;;;;;;;;;;5050071;28;20424;-67
2022/01/26 17:47:02;;;;;;;24.23;12.63;;;;;;;;;;5076905;28;20427;-67
2022/01/26 17:55:24;;;;;;;24.40;14.27;;;;;;;;;;5073735;28;20494;-67
2022/01/26 18:17:17;;;;;;;27.97;13.37;;;;;;;;;;5083163;28;20908;-70
2022/01/26 18:50:14;;;;;;;24.27;13.87;;;;;;;;;;5089965;28;20744;-67
2022/01/26 18:52:41;;;;;;;25.63;13.80;;;;;;;;;;5089466;28;20449;-67
2022/01/26 18:55:12;;;;;;;26.17;13.60;;;;;;;;;;5089014;28;20475;-67
2022/01/26 18:57:39;;;;;;;23.50;13.33;;;;;;;;;;5085969;28;20477;-67
2022/01/26 19:00:07;;;;;;;30.13;13.93;;;;;;;;;;5082609;28;20941;-66
2022/01/26 19:02:34;;;;;;;24.57;14.27;;;;;;;;;;5081964;28;20447;-66
2022/01/26 19:05:01;;;;;;;27.57;13.77;;;;;;;;;;5074199;28;20447;-66
2022/01/26 19:07:30;;;;;;;29.90;15.07;;;;;;;;;;5082530;28;21004;-66
2022/01/26 19:09:57;;;;;;;27.73;13.90;;;;;;;;;;5075928;28;20547;-67
2022/01/26 19:12:29;;;;;;;27.43;14.43;;;;;;;;;;5077486;28;20445;-67
2022/01/26 19:15:01;;;;;;;21.07;13.73;;;;;;;;;;5074383;28;20445;-67
2022/01/26 19:17:33;;;;;;;29.30;15.33;;;;;;;;;;5072557;28;20555;-66
2022/01/26 19:20:13;;;;;;;28.30;14.37;;;;;;;;;;5084511;28;20455;-66
2022/01/26 19:23:07;;;;;;;27.70;13.23;;;;;;;;;;5076219;28;20805;-66
2022/01/26 19:25:38;;;;;;;26.80;13.47;;;;;;;;;;5086189;28;20953;-66
2022/01/26 19:28:12;;;;;;;30.40;12.93;;;;;;;;;;5081140;28;20461;-66
2022/01/26 19:44:49;;;;;;;26.37;12.70;;;;;;;;;;5009068;28;20502;-65
2022/01/26 19:50:43;;;;;;;26.93;13.13;;;;;;;;;;5063925;28;20576;-66
2022/01/26 19:53:05;;;;;;;28.23;15.10;;;;;;;;;;5079563;28;20952;-66
2022/01/26 19:55:34;;;;;;;34.10;13.80;;;;;;;;;;5086281;28;20441;-66